Time;durP1;ratioP1;P1;durP2;ratioP2;P2;SDS_P1;SDS_P2;PMS_P1;PMS_P2;Temp;Humidity;BMP_temperature;BMP_pressure;BME280_temperature;BME280_humidity;BME280_pressure;Samples;Min_cycle;Max_cycle;Signal;HPM_P1;HPM_P2
2022/06/20 00:00:30;;;;;;;1.95;0.68;;;21.90;85.80;;;;;;5041382;28;46681;-77
2022/06/20 00:02:59;;;;;;;2.78;0.70;;;21.90;86.80;;;;;;5044144;28;45353;-78
2022/06/20 00:05:28;;;;;;;1.33;0.65;;;21.90;85.60;;;;;;5034824;28;47155;-77
2022/06/20 00:07:55;;;;;;;0.85;0.60;;;21.90;85.70;;;;;;5037120;28;45282;-77
2022/06/20 00:10:28;;;;;;;0.50;0.50;;;21.90;85.70;;;;;;5041086;28;45641;-77
2022/06/20 00:12:55;;;;;;;1.85;0.93;;;21.90;85.70;;;;;;5044232;28;45594;-78
2022/06/20 00:15:27;;;;;;;1.30;0.63;;;21.90;85.50;;;;;;5041316;28;46508;-77
2022/06/20 00:17:55;;;;;;;1.52;0.52;;;21.90;85.40;;;;;;5049723;28;45418;-78
2022/06/20 00:20:23;;;;;;;1.85;0.80;;;21.90;85.30;;;;;;5045175;28;45319;-78
2022/06/20 00:22:51;;;;;;;1.23;0.63;;;21.90;85.60;;;;;;5046337;28;45602;-79
2022/06/20 00:25:19;;;;;;;1.23;0.60;;;21.90;85.80;;;;;;5044880;28;48033;-78
2022/06/20 00:27:48;;;;;;;1.00;0.63;;;21.90;86.20;;;;;;5047512;28;47204;-78
2022/06/20 00:30:18;;;;;;;1.23;0.80;;;21.90;86.30;;;;;;5054207;28;45163;-78
2022/06/20 00:32:45;;;;;;;1.42;0.73;;;21.90;86.60;;;;;;5046267;28;46447;-78
2022/06/20 00:35:12;;;;;;;0.63;0.57;;;21.90;86.40;;;;;;5046275;28;47263;-77
2022/06/20 00:37:40;;;;;;;0.75;0.50;;;21.90;86.40;;;;;;5048574;28;45306;-77
2022/06/20 00:40:22;;;;;;;1.20;0.60;;;21.90;86.60;;;;;;5054797;28;45354;-77
2022/06/20 00:42:51;;;;;;;1.10;0.50;;;21.90;86.50;;;;;;5045596;28;45376;-77
2022/06/20 00:45:20;;;;;;;1.55;0.80;;;21.90;86.60;;;;;;5045308;28;48424;-77
2022/06/20 00:47:48;;;;;;;1.48;0.65;;;21.90;86.60;;;;;;5047001;28;45904;-77
2022/06/20 00:50:20;;;;;;;1.80;0.88;;;21.90;86.50;;;;;;5037320;28;45281;-77
2022/06/20 00:52:54;;;;;;;1.08;0.57;;;21.90;86.60;;;;;;5046286;28;45537;-77
2022/06/20 00:55:26;;;;;;;1.90;0.70;;;21.90;86.60;;;;;;5045318;28;47107;-77
2022/06/20 00:57:58;;;;;;;0.70;0.50;;;21.90;86.50;;;;;;5045275;28;46749;-77
2022/06/20 01:00:28;;;;;;;1.17;0.50;;;21.90;86.70;;;;;;5040014;28;45731;-77
2022/06/20 01:03:02;;;;;;;1.90;0.60;;;21.80;86.60;;;;;;5038427;28;45336;-77
2022/06/20 01:05:36;;;;;;;0.77;0.60;;;21.90;86.60;;;;;;5040048;28;46288;-77
2022/06/20 01:08:09;;;;;;;0.80;0.57;;;21.90;86.90;;;;;;5038190;28;45821;-77
2022/06/20 01:10:45;;;;;;;1.52;0.60;;;21.90;87.10;;;;;;5039024;28;46825;-77
2022/06/20 01:13:18;;;;;;;1.15;0.70;;;21.90;87.20;;;;;;5037067;28;45295;-77
2022/06/20 01:15:47;;;;;;;2.53;0.50;;;21.90;88.10;;;;;;5048084;28;47196;-77
2022/06/20 01:18:18;;;;;;;2.30;0.90;;;21.90;87.00;;;;;;5042927;28;45694;-77
2022/06/20 01:20:46;;;;;;;3.35;1.05;;;21.90;87.10;;;;;;5040360;28;45240;-77
2022/06/20 01:23:25;;;;;;;1.77;1.00;;;21.90;87.60;;;;;;5040341;28;45095;-77
2022/06/20 01:26:23;;;;;;;2.67;0.88;;;21.90;88.10;;;;;;5040194;28;47855;-77
2022/06/20 01:28:56;;;;;;;3.72;1.15;;;21.90;88.40;;;;;;5040085;28;45234;-77
2022/06/20 01:31:25;;;;;;;1.65;0.70;;;21.90;89.30;;;;;;5048732;28;45291;-77
2022/06/20 01:33:51;;;;;;;1.65;0.90;;;21.90;89.90;;;;;;5045748;28;45216;-78
2022/06/20 01:39:07;;;;;;;1.30;0.90;;;21.80;89.90;;;;;;5047246;28;45173;-78
2022/06/20 01:44:22;;;;;;;3.33;0.63;;;21.80;90.30;;;;;;5038750;28;45344;-77
2022/06/20 01:46:49;;;;;;;2.65;1.00;;;21.90;90.40;;;;;;5041473;28;46400;-77
2022/06/20 01:49:20;;;;;;;3.15;1.17;;;21.80;90.50;;;;;;5041485;28;46814;-78
2022/06/20 01:51:52;;;;;;;2.58;1.02;;;21.80;90.90;;;;;;5044893;28;45283;-77
2022/06/20 01:54:22;;;;;;;2.15;0.90;;;21.80;91.00;;;;;;5043826;28;45220;-78
2022/06/20 01:56:52;;;;;;;2.35;0.90;;;21.80;91.20;;;;;;5040753;28;47371;-78
2022/06/20 01:59:24;;;;;;;1.42;0.90;;;21.80;91.50;;;;;;5039751;28;45460;-78
2022/06/20 02:01:52;;;;;;;1.63;1.02;;;21.80;91.80;;;;;;5051625;28;45225;-78
2022/06/20 02:04:24;;;;;;;2.15;0.90;;;21.80;91.90;;;;;;5042052;28;45492;-78
2022/06/20 02:06:52;;;;;;;1.33;0.80;;;21.80;92.10;;;;;;5043519;28;47437;-78
2022/06/20 02:09:20;;;;;;;1.50;1.00;;;21.80;92.40;;;;;;5041971;28;45419;-78
2022/06/20 02:11:48;;;;;;;1.50;0.90;;;21.80;92.60;;;;;;5043381;28;45324;-78
2022/06/20 02:14:21;;;;;;;1.70;0.80;;;21.70;92.20;;;;;;5046939;28;45596;-77
2022/06/20 02:16:55;;;;;;;1.52;1.08;;;21.80;91.60;;;;;;5045848;28;45260;-78
2022/06/20 02:19:26;;;;;;;2.38;1.23;;;21.80;91.30;;;;;;5041734;28;45309;-78
2022/06/20 02:21:56;;;;;;;1.48;0.80;;;21.80;90.90;;;;;;5043830;28;45327;-78
2022/06/20 02:24:26;;;;;;;2.17;0.82;;;21.80;90.80;;;;;;5042329;28;45398;-78
2022/06/20 02:27:01;;;;;;;1.63;0.93;;;21.80;91.20;;;;;;5041975;28;47428;-78
2022/06/20 02:29:30;;;;;;;1.77;1.00;;;21.80;90.60;;;;;;5041737;28;45313;-78
2022/06/20 02:32:01;;;;;;;2.03;0.68;;;21.80;90.50;;;;;;5038262;28;45246;-78
2022/06/20 02:34:29;;;;;;;1.77;0.63;;;21.80;90.40;;;;;;5044671;28;45745;-78
2022/06/20 02:37:01;;;;;;;1.08;0.73;;;21.80;90.40;;;;;;5043871;28;45265;-78
2022/06/20 02:39:29;;;;;;;1.30;0.90;;;21.80;90.30;;;;;;5048629;28;45385;-78
2022/06/20 02:42:01;;;;;;;0.70;0.60;;;21.80;90.40;;;;;;5044147;28;45246;-78
2022/06/20 02:44:30;;;;;;;1.70;0.95;;;21.80;90.30;;;;;;5040745;28;45425;-78
2022/06/20 02:47:03;;;;;;;2.45;0.80;;;21.80;90.10;;;;;;5037503;28;47128;-78
2022/06/20 02:49:32;;;;;;;2.63;1.13;;;21.80;90.50;;;;;;5042323;28;45332;-78
2022/06/20 02:52:03;;;;;;;1.52;0.98;;;21.80;90.10;;;;;;5039625;28;45454;-78
2022/06/20 02:54:33;;;;;;;1.67;0.93;;;21.80;90.00;;;;;;5042532;28;45562;-78
2022/06/20 02:57:05;;;;;;;1.13;0.80;;;21.80;90.00;;;;;;5051098;28;46320;-78
2022/06/20 02:59:38;;;;;;;1.63;0.70;;;21.80;89.90;;;;;;5047686;28;45440;-78
2022/06/20 03:02:10;;;;;;;1.40;1.00;;;21.80;89.40;;;;;;5046833;28;45285;-78
2022/06/20 03:04:40;;;;;;;1.65;0.90;;;21.80;89.20;;;;;;5044458;28;45361;-78
2022/06/20 03:07:11;;;;;;;2.90;1.23;;;21.80;88.90;;;;;;5035709;28;46483;-78
2022/06/20 03:09:41;;;;;;;5.47;1.40;;;21.80;88.60;;;;;;5036941;28;46295;-77
2022/06/20 03:12:09;;;;;;;1.80;0.95;;;21.80;88.60;;;;;;5041011;28;45296;-78
2022/06/20 03:14:42;;;;;;;2.95;1.10;;;21.80;88.70;;;;;;5038320;28;45331;-78
2022/06/20 03:17:13;;;;;;;1.60;0.75;;;21.80;88.60;;;;;;5042268;28;45678;-78
2022/06/20 03:19:45;;;;;;;1.40;0.77;;;21.80;88.30;;;;;;5048838;28;45448;-78
2022/06/20 03:22:17;;;;;;;1.95;0.90;;;21.80;88.90;;;;;;5040218;28;45325;-77
2022/06/20 03:24:45;;;;;;;1.10;0.90;;;21.80;88.00;;;;;;5045638;28;45253;-78
2022/06/20 03:27:15;;;;;;;2.85;1.20;;;21.80;88.00;;;;;;5044522;28;48158;-78
2022/06/20 03:29:44;;;;;;;2.55;0.80;;;21.80;88.70;;;;;;5044615;28;45379;-78
2022/06/20 03:32:12;;;;;;;2.42;1.20;;;21.80;87.80;;;;;;5039528;28;45312;-78
2022/06/20 03:34:39;;;;;;;1.88;1.05;;;21.80;87.60;;;;;;5043935;28;45209;-78
2022/06/20 03:37:07;;;;;;;3.10;1.40;;;21.70;87.10;;;;;;5039735;28;48012;-78
2022/06/20 03:39:35;;;;;;;2.58;1.10;;;21.80;87.00;;;;;;5037705;28;45231;-78
2022/06/20 03:42:04;;;;;;;1.73;1.10;;;21.80;87.00;;;;;;5034452;28;45306;-78
2022/06/20 03:44:36;;;;;;;3.13;1.20;;;21.80;86.90;;;;;;5040885;28;45533;-78
2022/06/20 03:47:08;;;;;;;2.58;1.02;;;21.80;86.90;;;;;;5044079;28;47129;-78
2022/06/20 03:49:41;;;;;;;1.70;1.10;;;21.80;86.70;;;;;;5040002;28;46369;-78
2022/06/20 03:52:14;;;;;;;3.38;1.30;;;21.80;87.00;;;;;;5042424;28;45266;-78
2022/06/20 03:54:50;;;;;;;2.40;1.15;;;21.80;86.90;;;;;;5037480;28;45221;-78
2022/06/20 03:57:21;;;;;;;1.75;0.82;;;21.80;87.30;;;;;;5035361;28;46683;-78
2022/06/20 03:59:52;;;;;;;1.92;1.10;;;21.80;87.30;;;;;;5040203;28;45321;-78
2022/06/20 04:02:23;;;;;;;1.23;0.70;;;21.80;87.40;;;;;;5044343;28;45261;-78
2022/06/20 04:04:57;;;;;;;1.83;0.90;;;21.80;87.40;;;;;;5044100;28;45330;-78
2022/06/20 04:07:29;;;;;;;2.72;1.00;;;21.80;87.70;;;;;;5045971;28;47609;-78
2022/06/20 04:12:54;;;;;;;1.38;0.75;;;21.80;88.00;;;;;;5036591;28;45281;-77
2022/06/20 04:20:53;;;;;;;0.70;0.60;;;21.80;88.50;;;;;;5039169;28;45218;-77
2022/06/20 04:23:26;;;;;;;1.85;0.85;;;21.80;88.60;;;;;;5042147;28;45458;-77
2022/06/20 04:25:57;;;;;;;2.03;0.75;;;21.80;88.70;;;;;;5043396;28;45224;-77
2022/06/20 04:28:31;;;;;;;1.30;0.60;;;21.80;88.70;;;;;;5047918;28;47869;-77
2022/06/20 04:31:03;;;;;;;0.70;0.50;;;21.80;88.70;;;;;;5040540;28;45487;-77
2022/06/20 04:33:34;;;;;;;1.17;0.55;;;21.80;88.80;;;;;;5037506;28;45383;-77
2022/06/20 04:36:18;;;;;;;1.42;0.65;;;21.80;88.70;;;;;;5047457;28;45977;-77
2022/06/20 04:38:52;;;;;;;2.08;0.70;;;21.80;88.70;;;;;;5045033;28;45310;-77
2022/06/20 04:41:27;;;;;;;1.10;0.57;;;21.80;88.70;;;;;;5038465;28;45677;-77
2022/06/20 04:43:59;;;;;;;1.20;0.68;;;21.80;88.70;;;;;;5041265;28;45157;-77
2022/06/20 04:46:31;;;;;;;1.15;0.70;;;21.80;88.90;;;;;;5041858;28;46717;-77
2022/06/20 04:48:59;;;;;;;0.80;0.50;;;21.80;89.80;;;;;;5038580;28;46140;-77
2022/06/20 04:51:34;;;;;;;1.15;0.57;;;21.80;88.80;;;;;;5040398;28;45158;-77
2022/06/20 04:54:02;;;;;;;0.95;0.60;;;21.80;88.70;;;;;;5037734;28;46303;-77
2022/06/20 04:56:29;;;;;;;2.47;0.70;;;21.80;88.70;;;;;;5044216;28;45391;-77
2022/06/20 04:59:00;;;;;;;0.93;0.60;;;21.80;88.70;;;;;;5045227;28;47861;-77
2022/06/20 05:01:30;;;;;;;1.10;0.70;;;21.80;88.60;;;;;;5039692;28;45241;-77
2022/06/20 05:04:02;;;;;;;0.88;0.50;;;21.80;88.50;;;;;;5043662;28;45169;-77
2022/06/20 05:06:32;;;;;;;0.98;0.50;;;21.80;88.60;;;;;;5044456;28;45395;-77
2022/06/20 05:09:07;;;;;;;1.40;0.60;;;21.80;88.40;;;;;;5040092;28;46484;-77
2022/06/20 05:11:38;;;;;;;1.58;0.85;;;21.80;88.40;;;;;;5041943;28;45269;-77
2022/06/20 05:14:09;;;;;;;0.77;0.50;;;21.80;88.30;;;;;;5045706;28;45405;-77
2022/06/20 05:16:42;;;;;;;1.42;0.70;;;21.80;88.10;;;;;;5045395;28;45535;-77
2022/06/20 05:19:14;;;;;;;1.92;0.82;;;21.80;88.10;;;;;;5047362;28;48011;-77
2022/06/20 05:21:46;;;;;;;1.02;0.63;;;21.80;87.80;;;;;;5043470;28;45392;-77
2022/06/20 05:24:16;;;;;;;1.17;0.60;;;21.80;87.70;;;;;;5038234;28;45335;-77
2022/06/20 05:26:45;;;;;;;0.70;0.50;;;21.80;87.50;;;;;;5050263;28;45332;-77
2022/06/20 05:29:16;;;;;;;1.33;0.47;;;21.80;87.70;;;;;;5041641;28;46243;-77
2022/06/20 05:31:49;;;;;;;1.92;0.68;;;21.80;87.60;;;;;;5037516;28;45248;-77
2022/06/20 05:34:21;;;;;;;1.13;0.52;;;21.80;87.60;;;;;;5056924;28;45245;-77
2022/06/20 05:36:54;;;;;;;2.08;0.60;;;21.80;87.50;;;;;;5038948;28;45206;-77
2022/06/20 05:39:25;;;;;;;1.27;0.70;;;21.80;87.40;;;;;;5047163;28;46011;-77
2022/06/20 05:41:52;;;;;;;1.00;0.50;;;21.80;87.20;;;;;;5042695;28;45261;-77
2022/06/20 05:44:19;;;;;;;1.75;0.70;;;21.80;86.50;;;;;;5045179;28;45352;-77
2022/06/20 05:46:50;;;;;;;1.58;0.90;;;21.80;86.90;;;;;;5044221;28;45349;-77
2022/06/20 05:49:25;;;;;;;1.38;0.50;;;21.80;86.80;;;;;;5045575;28;45638;-77
2022/06/20 05:51:56;;;;;;;1.27;0.77;;;21.80;86.40;;;;;;5041379;28;45371;-77
2022/06/20 05:54:27;;;;;;;0.80;0.50;;;21.80;86.30;;;;;;5045921;28;45596;-77
2022/06/20 05:56:58;;;;;;;1.65;0.50;;;21.80;86.10;;;;;;5044016;28;45356;-77
2022/06/20 05:59:39;;;;;;;1.58;0.52;;;21.80;86.20;;;;;;5042405;28;45343;-78
2022/06/20 06:02:21;;;;;;;1.58;0.52;;;21.80;85.70;;;;;;5042943;28;45371;-77
2022/06/20 06:04:55;;;;;;;0.80;0.60;;;21.80;85.60;;;;;;5044572;28;45220;-77
2022/06/20 06:07:28;;;;;;;1.77;0.57;;;21.80;85.30;;;;;;5045265;28;45422;-77
2022/06/20 06:09:59;;;;;;;1.75;0.63;;;21.80;85.20;;;;;;5042293;28;45370;-77
2022/06/20 06:12:32;;;;;;;1.65;0.65;;;21.80;85.10;;;;;;5038518;28;45231;-77
2022/06/20 06:15:07;;;;;;;1.63;0.80;;;21.80;85.00;;;;;;5036679;28;45351;-77
2022/06/20 06:17:40;;;;;;;1.40;0.50;;;21.80;85.10;;;;;;5042076;28;45384;-77
2022/06/20 06:20:13;;;;;;;1.63;0.52;;;21.80;85.20;;;;;;5037139;28;45574;-77
2022/06/20 06:22:45;;;;;;;0.68;0.52;;;21.80;85.30;;;;;;5042044;28;45869;-77
2022/06/20 06:25:23;;;;;;;1.38;0.63;;;21.80;85.20;;;;;;5048500;28;45397;-77
2022/06/20 06:27:53;;;;;;;1.25;0.60;;;21.80;85.30;;;;;;5045303;28;45871;-77
2022/06/20 06:30:23;;;;;;;1.48;0.68;;;21.80;85.40;;;;;;5042318;28;48116;-77
2022/06/20 06:32:53;;;;;;;1.35;0.77;;;21.80;85.60;;;;;;5041631;28;45632;-77
2022/06/20 06:35:26;;;;;;;2.42;0.63;;;21.80;85.40;;;;;;5038896;28;45387;-76
2022/06/20 06:38:00;;;;;;;1.95;0.75;;;21.80;85.60;;;;;;5042018;28;45442;-77
2022/06/20 06:40:33;;;;;;;1.77;0.68;;;21.80;85.60;;;;;;5044784;28;46672;-77
2022/06/20 06:43:00;;;;;;;1.38;0.70;;;21.80;85.50;;;;;;5042417;28;45255;-77
2022/06/20 06:45:32;;;;;;;2.17;0.60;;;21.80;85.50;;;;;;5042163;28;45319;-77
2022/06/20 06:48:06;;;;;;;1.73;0.70;;;21.80;85.10;;;;;;5041451;28;45200;-77
2022/06/20 06:50:39;;;;;;;0.88;0.50;;;21.80;85.00;;;;;;5037717;28;45366;-77
2022/06/20 06:53:16;;;;;;;2.05;0.90;;;21.80;84.10;;;;;;5044392;28;46065;-77
2022/06/20 06:55:47;;;;;;;1.73;0.80;;;21.80;83.80;;;;;;5055162;28;45224;-77
2022/06/20 06:58:22;;;;;;;2.25;0.88;;;21.80;84.00;;;;;;5050981;28;45267;-78
2022/06/20 07:00:54;;;;;;;2.00;0.90;;;21.80;83.80;;;;;;5045999;28;46217;-78
2022/06/20 07:03:27;;;;;;;2.05;1.02;;;21.80;83.90;;;;;;5044681;28;45369;-77
2022/06/20 07:05:59;;;;;;;1.45;0.80;;;21.80;83.70;;;;;;5043848;28;45589;-77
2022/06/20 07:08:32;;;;;;;1.70;0.90;;;21.80;83.80;;;;;;5043298;28;45269;-77
2022/06/20 07:11:07;;;;;;;2.83;0.90;;;21.80;83.80;;;;;;5042293;28;46207;-77
2022/06/20 07:13:39;;;;;;;2.28;1.00;;;21.80;84.20;;;;;;5040389;28;45779;-77
2022/06/20 07:16:17;;;;;;;2.50;0.88;;;21.80;84.10;;;;;;5048124;28;45209;-77
2022/06/20 07:18:47;;;;;;;3.13;1.25;;;21.60;84.00;;;;;;5048362;28;45367;-77
2022/06/20 07:21:17;;;;;;;3.17;1.20;;;21.80;84.30;;;;;;5045468;28;45584;-77
2022/06/20 07:23:55;;;;;;;1.50;0.88;;;21.80;84.50;;;;;;5046282;28;45188;-77
2022/06/20 07:26:23;;;;;;;1.67;0.65;;;21.80;84.60;;;;;;5043744;28;46020;-77
2022/06/20 07:28:56;;;;;;;2.42;1.08;;;21.80;84.90;;;;;;5043434;28;45460;-76
2022/06/20 07:31:27;;;;;;;1.77;0.90;;;21.80;84.80;;;;;;5038775;28;46165;-77
2022/06/20 07:33:57;;;;;;;2.80;1.40;;;21.80;84.80;;;;;;5048170;28;45817;-77
2022/06/20 07:36:28;;;;;;;1.90;0.80;;;21.80;84.60;;;;;;5042128;28;45362;-76
2022/06/20 07:39:00;;;;;;;2.33;0.80;;;21.80;84.60;;;;;;5049842;28;45281;-76
2022/06/20 07:41:38;;;;;;;3.10;1.08;;;21.80;84.70;;;;;;5041315;28;45829;-77
2022/06/20 07:44:08;;;;;;;1.85;0.82;;;21.80;84.70;;;;;;5039718;28;45153;-77
2022/06/20 07:46:41;;;;;;;3.50;1.00;;;21.80;84.50;;;;;;5040109;28;45209;-77
2022/06/20 07:49:13;;;;;;;2.53;1.00;;;21.80;84.20;;;;;;5041413;28;45809;-74
2022/06/20 07:51:44;;;;;;;2.50;0.73;;;21.90;84.30;;;;;;5048075;28;45297;-77
2022/06/20 07:54:16;;;;;;;15.77;1.70;;;21.80;84.70;;;;;;5042121;28;45676;-79
2022/06/20 07:57:10;;;;;;;18.60;2.13;;;21.90;86.20;;;;;;5059159;28;45331;-81
2022/06/20 08:00:04;;;;;;;5.97;1.08;;;21.90;84.30;;;;;;5060967;28;44724;-81
2022/06/20 08:02:35;;;;;;;5.22;1.23;;;21.90;83.70;;;;;;5071917;28;45253;-83
2022/06/20 08:05:04;;;;;;;3.45;1.00;;;21.90;83.80;;;;;;5055296;28;44960;-82
2022/06/20 08:07:36;;;;;;;6.00;1.33;;;21.90;84.00;;;;;;5051875;28;44856;-81
2022/06/20 08:10:10;;;;;;;3.35;1.10;;;21.80;83.90;;;;;;5067025;28;44715;-82
2022/06/20 08:12:42;;;;;;;7.55;1.42;;;21.80;83.90;;;;;;5071049;28;45204;-84
2022/06/20 08:15:16;;;;;;;14.60;2.55;;;21.90;83.70;;;;;;5053135;28;45560;-70
2022/06/20 08:17:43;;;;;;;15.18;2.40;;;19.10;93.80;;;;;;5040847;28;45408;-70
2022/06/20 08:20:11;;;;;;;11.18;2.92;;;16.20;99.90;;;;;;5037911;28;45240;-71
2022/06/20 08:22:47;;;;;;;11.10;3.25;;;15.60;99.90;;;;;;5040845;28;46308;-70
2022/06/20 08:25:20;;;;;;;10.55;2.70;;;15.80;99.90;;;;;;5043679;28;45350;-70
2022/06/20 08:27:52;;;;;;;11.73;2.75;;;15.70;99.90;;;;;;5045931;28;45300;-70
2022/06/20 08:30:25;;;;;;;10.25;3.45;;;15.70;99.90;;;;;;5046070;28;45368;-71
2022/06/20 08:32:59;;;;;;;12.73;3.45;;;15.70;99.90;;;;;;5040866;28;47055;-70
2022/06/20 08:35:33;;;;;;;12.63;3.47;;;15.90;99.90;;;;;;5037008;28;45789;-70
2022/06/20 08:38:08;;;;;;;11.32;3.33;;;15.90;99.90;;;;;;5046237;28;45283;-70
2022/06/20 08:41:00;;;;;;;10.60;3.22;;;15.90;99.90;;;;;;5044876;28;45360;-70
2022/06/20 08:43:56;;;;;;;6.25;2.20;;;15.70;99.90;;;;;;5029159;28;46214;-71
2022/06/20 08:46:48;;;;;;;18.95;2.53;;;15.60;99.90;;;;;;5045331;28;45402;-70
2022/06/20 08:49:51;;;;;;;13.38;2.20;;;15.50;99.90;;;;;;5043494;28;45221;-70
2022/06/20 08:52:46;;;;;;;9.52;2.05;;;15.60;99.90;;;;;;5054612;28;45809;-70
2022/06/20 08:55:40;;;;;;;8.73;2.30;;;15.70;99.90;;;;;;5047279;28;46944;-70
2022/06/20 08:58:21;;;;;;;9.75;2.28;;;15.80;99.90;;;;;;5049793;28;45228;-70
2022/06/20 09:00:57;;;;;;;7.68;1.35;;;15.70;99.90;;;;;;5052215;28;45229;-70
2022/06/20 09:03:50;;;;;;;7.18;2.17;;;16.10;99.90;;;;;;5039358;28;45466;-70
2022/06/20 09:06:37;;;;;;;8.57;1.75;;;16.30;99.90;;;;;;5051291;28;45255;-70
2022/06/20 09:09:25;;;;;;;6.57;1.30;;;16.50;99.90;;;;;;5041531;28;45686;-70
2022/06/20 09:12:07;;;;;;;7.78;1.98;;;16.70;99.90;;;;;;5042891;28;45304;-70
2022/06/20 09:14:55;;;;;;;8.52;1.67;;;16.80;99.90;;;;;;5046943;28;45145;-70
2022/06/20 09:17:28;;;;;;;9.70;1.50;;;16.60;99.90;;;;;;5048158;28;47060;-70
2022/06/20 09:20:09;;;;;;;8.68;1.73;;;16.30;99.90;;;;;;5047520;28;45215;-70
2022/06/20 09:22:56;;;;;;;4.60;1.48;;;16.30;99.90;;;;;;5042654;28;45183;-70
2022/06/20 09:25:40;;;;;;;7.60;1.52;;;16.20;99.90;;;;;;5033965;28;45678;-70
2022/06/20 09:28:22;;;;;;;5.63;1.27;;;16.20;99.90;;;;;;5041324;28;45482;-70
2022/06/20 09:30:59;;;;;;;8.13;1.52;;;16.20;99.90;;;;;;5045355;28;45310;-70
2022/06/20 09:34:01;;;;;;;7.38;1.95;;;16.30;99.90;;;;;;5046916;28;45435;-70
2022/06/20 09:36:43;;;;;;;5.10;1.10;;;16.30;99.90;;;;;;5046855;28;45228;-70
2022/06/20 09:39:19;;;;;;;4.57;1.30;;;16.60;99.10;;;;;;5046347;28;45895;-70
2022/06/20 09:41:58;;;;;;;4.00;1.08;;;16.50;97.80;;;;;;5043303;28;45614;-70
2022/06/20 09:44:34;;;;;;;7.63;1.27;;;16.50;98.20;;;;;;5043218;28;45191;-70
2022/06/20 09:47:12;;;;;;;5.22;1.25;;;16.40;98.20;;;;;;5040278;28;45185;-71
2022/06/20 09:49:48;;;;;;;4.75;1.33;;;16.50;96.10;;;;;;5045671;28;45337;-70
2022/06/20 09:52:21;;;;;;;7.60;1.00;;;16.60;96.60;;;;;;5050323;28;45696;-70
2022/06/20 09:54:57;;;;;;;5.57;1.42;;;16.70;98.50;;;;;;5054851;28;45271;-70
2022/06/20 09:57:35;;;;;;;5.18;0.88;;;16.60;95.00;;;;;;5037924;28;45267;-70
2022/06/20 10:00:07;;;;;;;5.88;1.23;;;16.90;97.10;;;;;;5039406;28;46221;-70
2022/06/20 10:02:42;;;;;;;3.53;1.25;;;17.10;94.20;;;;;;5046195;28;45330;-71
2022/06/20 10:05:20;;;;;;;10.63;1.45;;;17.30;95.00;;;;;;5043686;28;45418;-71
2022/06/20 10:07:52;;;;;;;4.78;0.80;;;17.50;97.70;;;;;;5040095;28;45594;-70
2022/06/20 10:10:25;;;;;;;5.72;1.20;;;17.50;95.40;;;;;;5043112;28;46507;-70
2022/06/20 10:12:58;;;;;;;4.13;1.10;;;17.50;92.90;;;;;;5046064;28;45554;-71
2022/06/20 10:15:31;;;;;;;5.15;1.42;;;17.20;95.20;;;;;;5045473;28;45311;-71
2022/06/20 10:18:07;;;;;;;8.60;1.50;;;17.20;94.00;;;;;;5041246;28;45496;-70
2022/06/20 10:20:43;;;;;;;3.97;0.98;;;17.30;93.70;;;;;;5044311;28;48002;-70
2022/06/20 10:23:36;;;;;;;5.30;1.30;;;17.50;93.50;;;;;;5043296;28;45628;-70
2022/06/20 10:26:17;;;;;;;6.15;1.23;;;17.60;94.20;;;;;;5042596;28;45869;-71
2022/06/20 10:28:47;;;;;;;3.53;1.10;;;17.30;93.10;;;;;;5041700;28;45344;-70
2022/06/20 10:31:30;;;;;;;7.45;1.10;;;17.60;93.70;;;;;;5042800;28;46188;-70
2022/06/20 10:34:06;;;;;;;14.18;1.30;;;17.50;94.20;;;;;;5043515;28;45854;-70
2022/06/20 10:36:47;;;;;;;3.25;1.05;;;17.70;93.00;;;;;;5041973;28;45285;-70
2022/06/20 10:39:25;;;;;;;3.78;1.15;;;17.60;93.20;;;;;;5043265;28;45221;-70
2022/06/20 10:42:02;;;;;;;5.82;1.17;;;17.50;92.20;;;;;;5039467;28;45773;-71
2022/06/20 10:44:43;;;;;;;5.57;1.20;;;17.40;93.20;;;;;;5042309;28;45655;-71
2022/06/20 10:47:19;;;;;;;5.23;1.43;;;17.40;92.00;;;;;;5046558;28;45269;-71
2022/06/20 10:50:00;;;;;;;4.07;1.30;;;17.50;91.70;;;;;;5040922;28;45422;-71
2022/06/20 10:52:57;;;;;;;5.13;1.42;;;17.40;93.20;;;;;;5037589;28;45251;-71
2022/06/20 10:55:45;;;;;;;4.32;1.27;;;17.60;90.60;;;;;;5039085;28;45177;-70
2022/06/20 10:58:26;;;;;;;3.28;1.00;;;17.90;89.20;;;;;;5036671;28;45265;-70
2022/06/20 11:01:00;;;;;;;5.25;1.52;;;18.00;85.60;;;;;;5037756;28;45611;-70
2022/06/20 11:03:44;;;;;;;5.43;1.20;;;18.20;91.60;;;;;;5042407;28;47076;-70
2022/06/20 11:06:23;;;;;;;5.30;1.30;;;18.40;90.00;;;;;;5040156;28;46283;-70
2022/06/20 11:09:02;;;;;;;2.97;0.93;;;18.30;90.00;;;;;;5045688;28;45322;-70
2022/06/20 11:11:42;;;;;;;3.58;1.23;;;17.90;87.80;;;;;;5042720;28;45581;-70
2022/06/20 11:14:20;;;;;;;5.22;1.35;;;18.10;87.50;;;;;;5041143;28;45348;-70
2022/06/20 11:16:58;;;;;;;6.40;1.50;;;18.10;85.70;;;;;;5039618;28;45381;-70
2022/06/20 11:19:34;;;;;;;7.93;1.33;;;18.00;86.60;;;;;;5032852;28;45321;-70
2022/06/20 11:22:14;;;;;;;6.55;1.30;;;18.00;88.90;;;;;;5032828;28;45999;-70
2022/06/20 11:24:50;;;;;;;5.93;1.35;;;18.00;85.30;;;;;;5039701;28;47843;-70
2022/06/20 11:27:33;;;;;;;2.70;1.00;;;17.90;87.90;;;;;;5048609;28;45349;-70
2022/06/20 11:30:08;;;;;;;5.10;1.30;;;18.10;90.00;;;;;;5050027;28;45242;-70
2022/06/20 11:32:46;;;;;;;5.38;1.20;;;18.40;88.20;;;;;;5045986;28;45166;-70
2022/06/20 11:35:23;;;;;;;5.30;1.17;;;18.40;87.80;;;;;;5040533;28;46173;-70
2022/06/20 11:38:11;;;;;;;6.78;1.42;;;18.50;90.20;;;;;;5042267;28;45500;-70
2022/06/20 11:40:46;;;;;;;9.00;1.40;;;18.40;85.60;;;;;;5035246;28;45389;-70
2022/06/20 11:43:40;;;;;;;3.08;1.13;;;18.30;86.30;;;;;;5040012;28;45148;-70
2022/06/20 11:46:24;;;;;;;3.83;1.20;;;18.60;84.90;;;;;;5041246;28;45503;-70
2022/06/20 11:49:02;;;;;;;5.78;1.58;;;18.90;82.80;;;;;;5040324;28;45315;-70
2022/06/20 11:51:42;;;;;;;3.15;0.85;;;18.70;85.00;;;;;;5042078;28;45165;-70
2022/06/20 11:54:21;;;;;;;6.80;1.30;;;18.60;84.90;;;;;;5043387;28;45376;-70
2022/06/20 11:56:53;;;;;;;4.40;1.20;;;18.70;85.70;;;;;;5032596;28;47445;-70
2022/06/20 11:59:28;;;;;;;7.10;1.30;;;18.70;83.30;;;;;;5034647;28;46683;-71
2022/06/20 12:02:05;;;;;;;5.90;1.55;;;18.90;81.90;;;;;;5034604;28;45256;-70
2022/06/20 12:04:39;;;;;;;4.65;1.33;;;18.60;82.60;;;;;;5032430;28;46687;-70
2022/06/20 12:07:12;;;;;;;6.20;1.65;;;18.40;84.70;;;;;;5047143;28;47916;-70
2022/06/20 12:09:45;;;;;;;7.32;2.38;;;18.60;83.50;;;;;;5045625;28;45596;-70
2022/06/20 12:12:41;;;;;;;4.20;1.27;;;18.60;81.40;;;;;;5052791;28;45228;-70
2022/06/20 12:15:29;;;;;;;5.72;1.48;;;18.50;79.80;;;;;;5031066;28;45282;-70
2022/06/20 12:18:08;;;;;;;3.80;1.20;;;18.60;84.40;;;;;;5047196;28;45175;-70
2022/06/20 12:23:27;;;;;;;5.68;1.65;;;18.70;85.10;;;;;;5047686;28;45410;-70
2022/06/20 12:26:00;;;;;;;6.00;1.48;;;19.00;79.90;;;;;;5047444;28;45359;-70
2022/06/20 12:28:31;;;;;;;6.47;1.45;;;19.10;81.30;;;;;;5058910;28;45222;-70
2022/06/20 12:31:02;;;;;;;8.02;1.67;;;19.00;83.60;;;;;;5028452;28;45976;-70
2022/06/20 12:33:30;;;;;;;4.75;1.30;;;19.40;79.90;;;;;;5052077;28;45170;-70
2022/06/20 12:36:02;;;;;;;3.50;1.65;;;19.10;75.40;;;;;;5053089;28;45392;-70
2022/06/20 12:38:36;;;;;;;4.85;1.63;;;19.20;72.40;;;;;;5043824;28;46229;-70
2022/06/20 12:41:10;;;;;;;2.30;1.00;;;19.20;74.30;;;;;;5040170;28;45418;-70
2022/06/20 12:43:48;;;;;;;6.22;1.40;;;19.10;73.60;;;;;;5041016;28;45412;-71
2022/06/20 12:46:29;;;;;;;7.97;1.70;;;18.90;77.30;;;;;;5036973;28;45409;-73
2022/06/20 12:49:10;;;;;;;7.88;1.92;;;18.80;80.20;;;;;;5040762;28;45291;-72
2022/06/20 12:51:47;;;;;;;5.30;1.63;;;19.20;75.20;;;;;;5031832;28;45329;-71
2022/06/20 12:54:44;;;;;;;4.90;1.70;;;19.30;77.00;;;;;;5041763;28;45356;-71
2022/06/20 12:57:30;;;;;;;5.78;1.50;;;19.10;77.30;;;;;;5052761;28;45363;-71
2022/06/20 13:00:19;;;;;;;5.47;1.45;;;19.00;78.80;;;;;;5043836;28;46005;-71
2022/06/20 13:03:23;;;;;;;5.90;1.60;;;19.00;77.80;;;;;;5044877;28;45627;-71
2022/06/20 13:06:23;;;;;;;4.72;1.48;;;19.40;75.60;;;;;;5051949;28;45206;-71
2022/06/20 13:09:02;;;;;;;4.80;1.50;;;19.80;72.30;;;;;;5049399;28;45245;-71
2022/06/20 13:11:39;;;;;;;3.90;1.52;;;19.70;68.90;;;;;;5044581;28;48673;-71
2022/06/20 13:14:37;;;;;;;5.95;1.55;;;19.70;70.00;;;;;;5056289;28;45303;-71
2022/06/20 13:17:28;;;;;;;5.35;1.67;;;20.00;71.90;;;;;;5040270;28;45201;-71
2022/06/20 13:20:19;;;;;;;6.15;1.48;;;19.90;70.70;;;;;;5044157;28;45760;-71
2022/06/20 13:22:55;;;;;;;5.45;2.15;;;19.80;69.30;;;;;;5039548;28;45257;-71
2022/06/20 13:25:35;;;;;;;6.68;1.65;;;19.90;69.40;;;;;;5043054;28;46142;-71
2022/06/20 13:28:11;;;;;;;5.40;1.77;;;19.80;69.60;;;;;;5058824;28;45195;-71
2022/06/20 13:30:51;;;;;;;7.38;1.75;;;20.00;66.80;;;;;;5054365;28;45700;-71
2022/06/20 13:33:25;;;;;;;9.90;3.63;;;19.80;67.30;;;;;;5056427;28;45422;-71
2022/06/20 13:35:57;;;;;;;4.47;1.58;;;20.30;67.00;;;;;;5053607;28;45155;-71
2022/06/20 13:38:28;;;;;;;5.70;1.83;;;20.50;68.10;;;;;;5043485;28;45482;-71
2022/06/20 13:41:01;;;;;;;5.55;1.80;;;20.90;66.80;;;;;;5034966;28;45236;-71